CheckWX is a tool to help pilots better visualize weather data.  It is not intended as a substitute for an official pre-flight weather briefing.

17:55:40 UTC

LIRV TAF
Viterbo Airport
Viterbo, Italy
TAF LIRV 241400Z 2415/2424 VRB05KT CAVOK

Mar-24@
15:00 UTC

Mar-24 @ 15:00 UTC

Mar-25@
00:00 UTC

Mar-25 @ 00:00 UTC

TAF LIRV 241400Z 2415/2424 VRB05KT CAVOK
Wind
  • Variable at 5 KTS
Conditions
No significant weather
Cloud Levels
  • No significant clouds